Phoenix-Mesa-Gateway Airport
KIWA : now visible

Airfield :











YOU CAN JOIN US ON...

 
LOGIN :

Register | Disclaimer

   EN    FR    IT 

 









Legend :    VFR   Marginal VFR   IFR   Intensive IFR   Very Intensive IFR
Visi :
Ceiling :
>= 8 km
>= 3000ft
5 to 8 km
1000 to 3000 ft
1500m to 5 km
500 to 1000 ft
800 to 1500m
200 to 500 ft
< 800m
< 200 ft
Symbols :   Thunderstorms  Fog  Heavy snow  Heavy precipitations  Wind > 20 kt







- Airport Elevation : 1382 ft


KIWA - Phoenix-Mesa-Gateway

CURRENT METAR :
  • 191350Z 09004KT 10SM SCT150 SCT200 30/13 A2986

EXPIRED METARs :
  • 191150Z 11005KT 10SM BKN150 BKN200 28/12 A2984
  • 191135Z AUTO 12008KT 10SM CLR 29/12 A2984 RMK AO2 T02880119
  • 191115Z AUTO 11007KT 10SM CLR 29/11 A2983 RMK AO2 T02870107

TAF KIWA
Valid from the 19 at 12:00 until the 20 at 12:00 UTC


191120Z 1912/2012 12007KT P6SM BKN150 BKN200
FM191800 25007KT P6SM SCT150 BKN250
FM192200 29012G18KT P6SM FEW150 SCT250
FM200300 27006KT P6SM FEW150 FEW250
FM201100 11007KT P6SM FEW140
KZAB FIR / North America



MET'MAP, your aeronautical weather chart ! - Copyright ORBIFLY December 2007 - Disclaimer

ORBIFLY MET'MAP TEAM :

Programming & Development : Alexandra Zaïnal
Concept & Development : Baudouin d'Aumeries
Co-Development & Prog : Marc-Olivier Méhu
Technical & hardware support : Manuel Goepfert

Contact : metmap@orbifly.com




SOURCES & CREDITS :

   NOAA       Earth
Advisory